createdAt,value
2018-06-21T00:01:58.370Z,3.80
2018-06-21T00:04:26.866Z,4.10
2018-06-21T00:06:55.399Z,4.30
2018-06-21T00:09:24.040Z,4.10
2018-06-21T00:11:52.605Z,5.03
2018-06-21T00:14:21.216Z,4.77
2018-06-21T00:16:49.767Z,5.10
2018-06-21T00:19:18.372Z,4.70
2018-06-21T00:21:46.985Z,4.57
2018-06-21T00:24:15.498Z,5.60
2018-06-21T00:26:44.115Z,4.87
2018-06-21T00:29:12.697Z,4.30
2018-06-21T00:31:41.346Z,4.50
2018-06-21T00:34:09.910Z,4.23
2018-06-21T00:36:39.164Z,4.30
2018-06-21T00:39:08.815Z,4.40
2018-06-21T00:41:38.055Z,4.67
2018-06-21T00:44:06.884Z,4.57
2018-06-21T00:46:35.864Z,4.10
2018-06-21T00:49:04.360Z,3.57
2018-06-21T00:51:32.903Z,3.80
2018-06-21T00:54:01.502Z,3.70
2018-06-21T00:56:30.159Z,3.90
2018-06-21T00:58:58.687Z,3.97
2018-06-21T01:01:27.233Z,4.07
2018-06-21T01:03:55.835Z,3.90
2018-06-21T01:06:24.449Z,4.00
2018-06-21T01:08:52.960Z,4.03
2018-06-21T01:11:21.475Z,3.37
2018-06-21T01:13:50.078Z,3.63
2018-06-21T01:16:18.725Z,4.10
2018-06-21T01:18:47.254Z,3.90
2018-06-21T01:21:15.700Z,4.03
2018-06-21T01:23:44.293Z,3.70
2018-06-21T01:26:12.924Z,3.87
2018-06-21T01:28:41.508Z,4.23
2018-06-21T01:31:11.066Z,3.80
2018-06-21T01:33:40.471Z,5.33
2018-06-21T01:36:09.764Z,4.57
2018-06-21T01:38:38.775Z,4.60
2018-06-21T01:41:09.026Z,4.00
2018-06-21T01:43:37.768Z,3.97
2018-06-21T01:46:06.348Z,3.93
2018-06-21T01:48:34.860Z,3.97
2018-06-21T01:51:03.371Z,3.90
2018-06-21T01:53:31.877Z,4.00
2018-06-21T01:56:00.584Z,4.00
2018-06-21T01:58:29.013Z,3.70
2018-06-21T02:00:57.697Z,3.80
2018-06-21T02:03:26.290Z,4.27
2018-06-21T02:05:55.001Z,5.00
2018-06-21T02:08:23.513Z,4.70
2018-06-21T02:10:53.083Z,4.63
2018-06-21T02:13:21.627Z,4.70
2018-06-21T02:15:50.303Z,3.60
2018-06-21T02:18:18.838Z,4.00
2018-06-21T02:20:48.519Z,3.80
2018-06-21T02:23:17.003Z,4.43
2018-06-21T02:25:45.513Z,4.00
2018-06-21T02:28:13.988Z,4.50
2018-06-21T02:30:43.601Z,4.37
2018-06-21T02:33:12.128Z,3.93
2018-06-21T02:35:40.626Z,3.60
2018-06-21T02:38:09.755Z,3.90
2018-06-21T02:40:38.272Z,4.20
2018-06-21T02:43:07.884Z,4.10
2018-06-21T02:45:36.513Z,4.10
2018-06-21T02:48:05.369Z,4.37
2018-06-21T02:50:33.993Z,4.40
2018-06-21T02:53:02.514Z,4.10
2018-06-21T02:55:31.115Z,3.90
2018-06-21T02:57:59.523Z,4.37
2018-06-21T03:00:29.100Z,4.53
2018-06-21T03:02:57.560Z,4.40
2018-06-21T03:05:26.188Z,4.53
2018-06-21T03:07:54.685Z,4.30
2018-06-21T03:10:24.245Z,4.17
2018-06-21T03:12:52.906Z,4.23
2018-06-21T03:15:21.473Z,4.50
2018-06-21T03:17:49.908Z,4.33
2018-06-21T03:20:18.469Z,4.30
2018-06-21T03:22:46.890Z,4.67
2018-06-21T03:25:15.388Z,4.43
2018-06-21T03:27:43.802Z,4.30
2018-06-21T03:30:13.288Z,4.30
2018-06-21T03:32:41.903Z,5.03
2018-06-21T03:35:10.840Z,4.90
2018-06-21T03:37:39.882Z,3.93
2018-06-21T03:40:09.025Z,4.40
2018-06-21T03:42:38.301Z,4.87
2018-06-21T03:45:07.795Z,4.90
2018-06-21T03:47:36.270Z,4.87
2018-06-21T03:50:05.285Z,4.80
2018-06-21T03:52:33.793Z,4.83
2018-06-21T03:55:02.437Z,4.77
2018-06-21T03:57:30.947Z,4.80
2018-06-21T03:59:59.540Z,4.30
2018-06-21T04:02:28.013Z,4.70
2018-06-21T04:04:56.534Z,4.70
2018-06-21T04:07:25.061Z,4.80
2018-06-21T04:09:53.616Z,5.37
2018-06-21T04:12:22.191Z,4.83
2018-06-21T04:14:50.781Z,5.37
2018-06-21T04:17:19.338Z,5.37
2018-06-21T04:19:47.985Z,5.17
2018-06-21T04:22:16.556Z,4.97
2018-06-21T04:24:45.062Z,4.77
2018-06-21T04:27:13.605Z,4.93
2018-06-21T04:29:42.185Z,4.50
2018-06-21T04:32:10.755Z,5.20
2018-06-21T04:34:39.713Z,4.80
2018-06-21T04:37:09.087Z,5.00
2018-06-21T04:39:37.954Z,4.93
2018-06-21T04:42:06.497Z,5.00
2018-06-21T04:44:35.191Z,5.27
2018-06-21T04:47:03.909Z,5.30
2018-06-21T04:49:32.499Z,5.60
2018-06-21T04:52:01.081Z,5.00
2018-06-21T04:54:29.616Z,5.23
2018-06-21T04:56:58.138Z,5.30
2018-06-21T04:59:26.659Z,6.07
2018-06-21T05:01:55.184Z,6.40
2018-06-21T05:04:23.782Z,5.40
2018-06-21T05:06:52.222Z,5.00
2018-06-21T05:09:20.881Z,6.17
2018-06-21T05:11:50.613Z,5.43
2018-06-21T05:14:19.233Z,5.50
2018-06-21T05:16:47.830Z,5.80
2018-06-21T05:19:16.359Z,5.73
2018-06-21T05:21:44.825Z,5.80
2018-06-21T05:24:13.399Z,6.10
2018-06-21T05:26:41.881Z,5.57
2018-06-21T05:29:10.429Z,5.50
2018-06-21T05:31:38.952Z,5.93
2018-06-21T05:34:07.972Z,5.67
2018-06-21T05:36:36.519Z,6.20
2018-06-21T05:39:08.427Z,6.10
2018-06-21T05:41:37.068Z,5.47
2018-06-21T05:44:05.560Z,5.77
2018-06-21T05:46:34.138Z,6.50
2018-06-21T05:49:02.631Z,6.40
2018-06-21T05:51:31.073Z,6.27
2018-06-21T05:53:59.622Z,5.93
2018-06-21T05:56:28.218Z,6.37
2018-06-21T05:58:56.734Z,6.77
2018-06-21T06:01:25.124Z,5.60
2018-06-21T06:03:53.635Z,7.43
2018-06-21T06:06:22.081Z,6.33
2018-06-21T06:08:50.556Z,6.30
2018-06-21T06:11:19.051Z,6.43
2018-06-21T06:13:47.548Z,6.23
2018-06-21T06:16:16.019Z,6.13
2018-06-21T06:18:44.503Z,6.20
2018-06-21T06:21:12.955Z,7.70
2018-06-21T06:23:41.494Z,7.80
2018-06-21T06:26:10.206Z,6.97
2018-06-21T06:28:39.594Z,6.67
2018-06-21T06:31:08.780Z,6.80
2018-06-21T06:33:38.121Z,6.60
2018-06-21T06:36:06.589Z,6.20
2018-06-21T06:38:35.142Z,6.77
2018-06-21T06:41:03.693Z,6.97
2018-06-21T06:43:32.211Z,7.10
2018-06-21T06:46:00.642Z,6.60
2018-06-21T06:48:29.192Z,6.87
2018-06-21T06:50:57.785Z,6.97
2018-06-21T06:53:26.319Z,7.30
2018-06-21T06:55:55.039Z,7.30
2018-06-21T06:58:23.673Z,7.67
2018-06-21T07:00:52.131Z,8.37
2018-06-21T07:03:20.737Z,8.20
2018-06-21T07:05:49.322Z,8.33
2018-06-21T07:08:19.734Z,8.50
2018-06-21T07:10:48.415Z,7.70
2018-06-21T07:13:16.934Z,8.20
2018-06-21T07:15:45.423Z,7.90
2018-06-21T07:18:13.952Z,7.90
2018-06-21T07:20:42.407Z,7.50
2018-06-21T07:23:10.965Z,8.00
2018-06-21T07:25:40.264Z,8.80
2018-06-21T07:28:09.506Z,7.80
2018-06-21T07:30:38.035Z,7.33
2018-06-21T07:33:06.612Z,6.90
2018-06-21T07:35:35.121Z,7.63
2018-06-21T07:38:03.653Z,7.60
2018-06-21T07:40:32.099Z,7.03
2018-06-21T07:43:00.609Z,7.40
2018-06-21T07:45:29.100Z,7.80
2018-06-21T07:47:57.749Z,7.00
2018-06-21T07:50:26.164Z,7.27
2018-06-21T07:52:54.308Z,7.40
2018-06-21T07:55:22.887Z,6.70
2018-06-21T07:57:51.377Z,7.27
2018-06-21T08:00:19.863Z,7.30
2018-06-21T08:02:48.443Z,7.37
2018-06-21T08:05:16.849Z,7.20
2018-06-21T08:07:45.374Z,6.70
2018-06-21T08:10:14.538Z,7.17
2018-06-21T08:12:43.054Z,6.80
2018-06-21T08:15:11.567Z,6.57
2018-06-21T08:17:40.142Z,6.77
2018-06-21T08:20:09.422Z,7.47
2018-06-21T08:25:30.642Z,6.60
2018-06-21T08:27:59.168Z,6.13
2018-06-21T08:30:27.638Z,6.00
2018-06-21T08:32:56.147Z,6.03
2018-06-21T08:35:24.624Z,5.17
2018-06-21T08:37:53.125Z,5.63
2018-06-21T08:40:21.632Z,5.53
2018-06-21T08:42:50.104Z,5.27
2018-06-21T08:45:18.521Z,5.17
2018-06-21T08:47:47.123Z,4.83
2018-06-21T08:50:15.659Z,4.80
2018-06-21T08:52:44.173Z,4.60
2018-06-21T08:55:12.608Z,4.53
2018-06-21T08:57:41.080Z,4.50
2018-06-21T09:00:09.512Z,4.43
2018-06-21T09:02:38.432Z,4.57
2018-06-21T09:05:07.953Z,4.47
2018-06-21T09:07:36.497Z,4.23
2018-06-21T09:10:05.029Z,4.20
2018-06-21T09:12:33.465Z,4.90
2018-06-21T09:15:01.993Z,4.80
2018-06-21T09:17:30.501Z,5.20
2018-06-21T09:19:59.007Z,5.23
2018-06-21T09:22:27.438Z,4.53
2018-06-21T09:24:55.906Z,4.70
2018-06-21T09:27:24.353Z,4.80
2018-06-21T09:29:52.721Z,4.23
2018-06-21T09:32:21.227Z,4.27
2018-06-21T09:34:49.732Z,4.60
2018-06-21T09:37:23.299Z,5.63
2018-06-21T09:39:57.093Z,5.80
2018-06-21T09:42:30.776Z,5.40
2018-06-21T09:44:59.735Z,5.10
2018-06-21T09:47:33.346Z,4.67
2018-06-21T09:50:02.205Z,4.30
2018-06-21T09:52:30.748Z,4.00
2018-06-21T09:54:59.360Z,3.40
2018-06-21T09:57:27.828Z,3.50
2018-06-21T09:59:56.276Z,3.70
2018-06-21T10:02:24.727Z,3.50
2018-06-21T10:04:53.302Z,3.30
2018-06-21T10:07:21.891Z,3.70
2018-06-21T10:09:50.433Z,3.53
2018-06-21T10:12:19.434Z,3.57
2018-06-21T10:14:48.338Z,3.50
2018-06-21T10:17:16.849Z,3.80
2018-06-21T10:19:45.380Z,3.57
2018-06-21T10:22:14.017Z,3.83
2018-06-21T10:24:42.543Z,4.00
2018-06-21T10:27:11.027Z,3.80
2018-06-21T10:29:39.535Z,3.90
2018-06-21T10:32:08.660Z,3.93
2018-06-21T10:34:37.337Z,3.90
2018-06-21T10:37:05.963Z,4.10
2018-06-21T10:39:34.419Z,4.00
2018-06-21T10:42:02.935Z,4.03
2018-06-21T10:44:31.514Z,3.70
2018-06-21T10:46:59.981Z,3.63
2018-06-21T10:49:28.503Z,3.77
2018-06-21T10:51:56.899Z,3.80
2018-06-21T10:54:25.517Z,4.03
2018-06-21T10:56:53.969Z,4.10
2018-06-21T10:59:22.478Z,4.23
2018-06-21T11:01:51.005Z,4.03
2018-06-21T11:04:19.520Z,3.73
2018-06-21T11:06:47.955Z,4.10
2018-06-21T11:09:16.588Z,4.53
2018-06-21T11:11:45.064Z,4.73
2018-06-21T11:14:13.509Z,4.40
2018-06-21T11:16:42.003Z,3.60
2018-06-21T11:19:10.520Z,3.93
2018-06-21T11:21:39.048Z,4.23
2018-06-21T11:24:08.265Z,3.90
2018-06-21T11:26:37.449Z,3.53
2018-06-21T11:29:06.408Z,3.73
2018-06-21T11:31:35.032Z,3.60
2018-06-21T11:34:03.560Z,3.43
2018-06-21T11:36:32.405Z,3.67
2018-06-21T11:39:00.961Z,3.90
2018-06-21T11:41:29.468Z,4.17
2018-06-21T11:43:58.082Z,3.97
2018-06-21T11:46:26.556Z,4.37
2018-06-21T11:48:55.117Z,3.97
2018-06-21T11:51:23.665Z,4.10
2018-06-21T11:53:52.332Z,4.00
2018-06-21T11:56:20.512Z,4.30
2018-06-21T11:58:48.732Z,4.20
2018-06-21T12:01:17.215Z,4.37
2018-06-21T12:03:45.736Z,4.50
2018-06-21T12:06:13.924Z,4.57
2018-06-21T12:08:42.493Z,5.27
2018-06-21T12:11:11.197Z,4.70
2018-06-21T12:13:39.784Z,4.47
2018-06-21T12:16:08.291Z,4.90
2018-06-21T12:18:37.226Z,5.10
2018-06-21T12:21:05.754Z,4.70
2018-06-21T12:23:34.317Z,4.70
2018-06-21T12:26:02.790Z,6.33
2018-06-21T12:28:31.426Z,6.23
2018-06-21T12:30:59.905Z,5.40
2018-06-21T12:33:28.432Z,4.50
2018-06-21T12:35:56.971Z,4.97
2018-06-21T12:38:25.556Z,4.23
2018-06-21T12:40:54.084Z,4.60
2018-06-21T12:43:22.721Z,4.47
2018-06-21T12:45:51.237Z,4.73
2018-06-21T12:48:19.984Z,4.40
2018-06-21T12:50:48.489Z,4.03
2018-06-21T12:53:17.166Z,4.50
2018-06-21T12:55:45.648Z,4.20
2018-06-21T12:58:14.275Z,4.13
2018-06-21T13:00:42.677Z,4.27
2018-06-21T13:03:11.209Z,3.90
2018-06-21T13:05:39.932Z,4.17
2018-06-21T13:08:09.201Z,4.07
2018-06-21T13:10:49.061Z,4.03
2018-06-21T13:13:23.925Z,4.03
2018-06-21T13:15:52.363Z,3.80
2018-06-21T13:18:20.925Z,4.40
2018-06-21T13:20:49.477Z,4.20
2018-06-21T13:23:18.223Z,4.10
2018-06-21T13:25:46.644Z,4.17
2018-06-21T13:28:15.125Z,4.20
2018-06-21T13:30:43.637Z,3.90
2018-06-21T13:33:12.287Z,4.00
2018-06-21T13:35:40.740Z,3.80
2018-06-21T13:38:09.890Z,3.90
2018-06-21T13:40:39.016Z,3.73
2018-06-21T13:43:07.838Z,3.67
2018-06-21T13:45:36.365Z,4.20
2018-06-21T13:48:04.957Z,4.70
2018-06-21T13:50:33.401Z,4.47
2018-06-21T13:53:01.613Z,4.00
2018-06-21T13:55:30.511Z,4.50
2018-06-21T13:57:59.074Z,4.57
2018-06-21T14:00:29.201Z,4.20
2018-06-21T14:02:57.837Z,4.13
2018-06-21T14:05:26.406Z,3.87
2018-06-21T14:07:55.051Z,4.20
2018-06-21T14:10:23.612Z,4.10
2018-06-21T14:12:52.248Z,4.00
2018-06-21T14:15:20.908Z,4.23
2018-06-21T14:17:49.516Z,3.87
2018-06-21T14:20:17.995Z,3.60
2018-06-21T14:22:46.468Z,3.00
2018-06-21T14:25:14.954Z,3.60
2018-06-21T14:27:43.509Z,3.63
2018-06-21T14:30:12.087Z,3.53
2018-06-21T14:32:40.748Z,3.23
2018-06-21T14:35:09.439Z,3.40
2018-06-21T14:37:38.743Z,3.23
2018-06-21T14:40:07.815Z,3.47
2018-06-21T14:42:36.364Z,2.97
2018-06-21T14:45:05.210Z,2.77
2018-06-21T14:47:33.673Z,2.80
2018-06-21T14:50:02.229Z,2.57
2018-06-21T14:52:30.444Z,2.40
2018-06-21T14:54:59.015Z,2.87
2018-06-21T14:57:27.576Z,2.30
2018-06-21T14:59:56.088Z,2.43
2018-06-21T15:02:24.533Z,2.60
2018-06-21T15:04:53.098Z,2.60
2018-06-21T15:07:21.565Z,2.50
2018-06-21T15:09:50.050Z,2.13
2018-06-21T15:12:18.473Z,2.20
2018-06-21T15:14:47.025Z,2.10
2018-06-21T15:17:15.567Z,2.10
2018-06-21T15:19:44.028Z,2.50
2018-06-21T15:22:12.479Z,2.60
2018-06-21T15:24:41.090Z,2.37
2018-06-21T15:27:10.483Z,2.63
2018-06-21T15:29:39.683Z,2.40
2018-06-21T15:32:09.075Z,2.70
2018-06-21T15:34:37.850Z,2.70
2018-06-21T15:37:06.293Z,2.90
2018-06-21T15:39:34.792Z,3.13
2018-06-21T15:42:03.268Z,3.10
2018-06-21T15:44:31.797Z,3.50
2018-06-21T15:47:00.228Z,3.60
2018-06-21T15:49:28.797Z,3.53
2018-06-21T15:51:57.257Z,3.50
2018-06-21T15:54:25.712Z,3.50
2018-06-21T15:56:54.289Z,3.27
2018-06-21T15:59:22.844Z,2.90
2018-06-21T16:01:51.362Z,3.00
2018-06-21T16:04:19.898Z,3.20
2018-06-21T16:06:48.355Z,2.87
2018-06-21T16:09:16.863Z,3.07
2018-06-21T16:11:45.390Z,2.50
2018-06-21T16:14:13.841Z,2.47
2018-06-21T16:16:42.306Z,2.50
2018-06-21T16:19:10.845Z,2.43
2018-06-21T16:21:40.011Z,2.50
2018-06-21T16:24:09.624Z,2.33
2018-06-21T16:26:38.869Z,2.30
2018-06-21T16:29:07.941Z,2.60
2018-06-21T16:31:37.020Z,2.63
2018-06-21T16:34:05.648Z,2.67
2018-06-21T16:36:34.099Z,2.30
2018-06-21T16:39:02.619Z,2.83
2018-06-21T16:41:31.113Z,2.43
2018-06-21T16:43:59.630Z,2.03
2018-06-21T16:46:28.117Z,2.50
2018-06-21T16:48:56.559Z,2.30
2018-06-21T16:51:25.043Z,2.47
2018-06-21T16:53:53.610Z,2.30
2018-06-21T16:56:22.143Z,2.73
2018-06-21T16:58:50.570Z,2.33
2018-06-21T17:01:19.172Z,2.40
2018-06-21T17:03:47.904Z,2.60
2018-06-21T17:06:16.691Z,2.90
2018-06-21T17:08:45.271Z,2.93
2018-06-21T17:11:13.734Z,2.80
2018-06-21T17:13:42.333Z,2.73
2018-06-21T17:16:10.766Z,2.77
2018-06-21T17:18:40.088Z,2.40
2018-06-21T17:21:09.249Z,2.47
2018-06-21T17:23:37.857Z,2.70
2018-06-21T17:26:06.284Z,2.60
2018-06-21T17:28:34.899Z,2.77
2018-06-21T17:31:03.340Z,2.80
2018-06-21T17:33:31.823Z,2.87
2018-06-21T17:36:00.463Z,3.00
2018-06-21T17:38:28.948Z,2.90
2018-06-21T17:40:57.395Z,2.97
2018-06-21T17:43:25.959Z,3.53
2018-06-21T17:45:54.442Z,3.10
2018-06-21T17:48:22.919Z,3.23
2018-06-21T17:50:51.404Z,3.10
2018-06-21T17:53:19.952Z,3.70
2018-06-21T17:55:48.428Z,3.27
2018-06-21T17:58:16.659Z,4.27
2018-06-21T18:00:45.164Z,3.70
2018-06-21T18:03:13.984Z,3.43
2018-06-21T18:05:42.527Z,3.97
2018-06-21T18:08:11.087Z,4.03
2018-06-21T18:10:40.629Z,4.20
2018-06-21T18:13:10.047Z,4.40
2018-06-21T18:15:39.053Z,4.30
2018-06-21T18:18:07.950Z,4.00
2018-06-21T18:20:36.457Z,4.07
2018-06-21T18:23:05.256Z,3.43
2018-06-21T18:25:34.137Z,4.60
2018-06-21T18:28:02.702Z,3.57
2018-06-21T18:30:31.221Z,3.40
2018-06-21T18:32:59.721Z,3.40
2018-06-21T18:35:27.914Z,3.50
2018-06-21T18:37:56.624Z,3.80
2018-06-21T18:40:25.096Z,3.70
2018-06-21T18:42:53.640Z,2.90
2018-06-21T18:45:22.136Z,3.43
2018-06-21T18:47:50.692Z,3.17
2018-06-21T18:50:19.107Z,2.80
2018-06-21T18:52:47.734Z,3.20
2018-06-21T18:55:16.315Z,3.03
2018-06-21T18:57:44.816Z,3.10
2018-06-21T19:00:13.296Z,2.60
2018-06-21T19:02:41.846Z,2.13
2018-06-21T19:05:10.321Z,3.80
2018-06-21T19:07:41.611Z,3.10
2018-06-21T19:10:15.391Z,2.70
2018-06-21T19:12:44.011Z,2.37
2018-06-21T19:15:12.532Z,1.97
2018-06-21T19:17:40.995Z,2.20
2018-06-21T19:20:10.189Z,2.07
2018-06-21T19:22:39.375Z,2.33
2018-06-21T19:25:07.936Z,1.90
2018-06-21T19:27:36.428Z,1.93
2018-06-21T19:30:05.328Z,2.17
2018-06-21T19:32:33.779Z,2.03
2018-06-21T19:35:02.251Z,2.07
2018-06-21T19:37:30.749Z,2.33
2018-06-21T19:39:59.306Z,1.90
2018-06-21T19:42:27.819Z,2.03
2018-06-21T19:44:56.343Z,1.90
2018-06-21T19:47:24.809Z,2.53
2018-06-21T19:49:53.272Z,1.80
2018-06-21T19:52:21.792Z,2.20
2018-06-21T19:54:50.297Z,1.80
2018-06-21T19:57:18.724Z,2.07
2018-06-21T19:59:47.299Z,1.70
2018-06-21T20:02:15.795Z,1.93
2018-06-21T20:04:44.341Z,2.83
2018-06-21T20:07:12.881Z,1.90
2018-06-21T20:09:41.436Z,1.70
2018-06-21T20:12:10.244Z,2.23
2018-06-21T20:14:39.314Z,1.70
2018-06-21T20:17:08.100Z,1.70
2018-06-21T20:19:41.836Z,1.50
2018-06-21T20:22:10.368Z,1.67
2018-06-21T20:24:39.637Z,1.70
2018-06-21T20:27:08.677Z,1.30
2018-06-21T20:29:37.451Z,1.20
2018-06-21T20:32:05.896Z,1.40
2018-06-21T20:34:34.488Z,1.60
2018-06-21T20:37:03.032Z,1.70
2018-06-21T20:39:31.426Z,1.30
2018-06-21T20:42:00.024Z,1.40
2018-06-21T20:44:28.604Z,1.43
2018-06-21T20:46:57.183Z,1.83
2018-06-21T20:49:25.718Z,1.50
2018-06-21T20:51:54.278Z,1.30
2018-06-21T20:54:22.743Z,1.17
2018-06-21T20:56:51.242Z,1.30
2018-06-21T20:59:19.982Z,1.27
2018-06-21T21:01:48.561Z,1.13
2018-06-21T21:04:17.016Z,1.50
2018-06-21T21:06:45.510Z,1.70
2018-06-21T21:09:14.031Z,1.43
2018-06-21T21:11:42.778Z,1.00
2018-06-21T21:14:11.279Z,1.50
2018-06-21T21:16:40.051Z,1.40
2018-06-21T21:19:09.882Z,1.20
2018-06-21T21:21:38.874Z,1.10
2018-06-21T21:24:08.163Z,1.47
2018-06-21T21:26:36.724Z,2.00
2018-06-21T21:29:05.164Z,1.30
2018-06-21T21:31:33.701Z,1.30
2018-06-21T21:34:02.419Z,1.20
2018-06-21T21:36:31.021Z,1.20
2018-06-21T21:38:59.479Z,1.47
2018-06-21T21:41:27.977Z,1.30
2018-06-21T21:43:56.429Z,1.13
2018-06-21T21:46:24.988Z,1.10
2018-06-21T21:48:53.373Z,1.33
2018-06-21T21:51:21.945Z,1.40
2018-06-21T21:53:50.424Z,1.50
2018-06-21T21:56:18.997Z,0.97
2018-06-21T21:58:47.429Z,1.00
2018-06-21T22:01:15.851Z,1.20
2018-06-21T22:03:44.285Z,1.10
2018-06-21T22:06:12.928Z,1.50
2018-06-21T22:08:41.396Z,1.40
2018-06-21T22:11:09.515Z,1.40
2018-06-21T22:13:38.131Z,1.60
2018-06-21T22:16:06.735Z,1.40
2018-06-21T22:18:35.228Z,1.40
2018-06-21T22:21:04.125Z,1.30
2018-06-21T22:23:32.552Z,1.20
2018-06-21T22:26:01.051Z,1.67
2018-06-21T22:28:29.484Z,1.40
2018-06-21T22:30:58.053Z,1.20
2018-06-21T22:33:26.517Z,1.30
2018-06-21T22:35:55.052Z,1.30
2018-06-21T22:38:23.571Z,1.47
2018-06-21T22:40:52.080Z,1.70
2018-06-21T22:43:20.514Z,1.40
2018-06-21T22:45:48.944Z,1.50
2018-06-21T22:48:17.345Z,1.90
2018-06-21T22:50:45.871Z,1.40
2018-06-21T22:53:14.339Z,1.53
2018-06-21T22:55:42.887Z,1.47
2018-06-21T22:58:11.399Z,1.60
2018-06-21T23:00:40.982Z,1.40
2018-06-21T23:03:10.097Z,1.50
2018-06-21T23:05:39.284Z,1.70
2018-06-21T23:08:08.190Z,1.50
2018-06-21T23:10:38.022Z,1.50
2018-06-21T23:13:06.419Z,1.90
2018-06-21T23:15:35.058Z,1.40
2018-06-21T23:18:03.880Z,1.50
2018-06-21T23:20:33.398Z,1.40
2018-06-21T23:23:01.865Z,1.73
2018-06-21T23:25:30.476Z,1.50
2018-06-21T23:27:58.916Z,1.40
2018-06-21T23:30:27.505Z,1.37
2018-06-21T23:32:55.942Z,1.23
2018-06-21T23:35:24.523Z,1.50
2018-06-21T23:37:52.932Z,1.40
2018-06-21T23:40:22.467Z,1.67
2018-06-21T23:42:50.937Z,1.50
2018-06-21T23:45:19.468Z,1.50
2018-06-21T23:47:47.968Z,1.80
2018-06-21T23:50:17.513Z,1.50
2018-06-21T23:52:45.975Z,1.40
2018-06-21T23:55:14.444Z,1.47
2018-06-21T23:57:42.987Z,1.50
